Time,TemperatureF,DewpointF,PressureIn,WindDirection,WindDirectionDegrees,WindSpeedMPH,WindSpeedGustMPH,Humidity,HourlyPrecipIn,Conditions,Clouds,dailyrainin,SoftwareType,DateUTC
2013-02-17 00:01:00,53.4,37.6,30.16,NNW,336,6.0,20.0,55,0.00,,,0.00,meteohub,2013-02-17 05:01:00,
2013-02-17 00:06:00,53.4,38.1,30.17,NW,309,5.0,20.0,56,0.00,,,0.00,meteohub,2013-02-17 05:06:00,
2013-02-17 00:11:00,53.2,37.0,30.17,West,278,13.0,17.0,54,0.00,,,0.00,meteohub,2013-02-17 05:11:00,
2013-02-17 00:16:00,53.2,37.0,30.17,NNW,336,9.0,16.0,54,0.00,,,0.00,meteohub,2013-02-17 05:16:00,
2013-02-17 00:21:00,53.1,36.9,30.17,NNW,338,4.0,17.0,54,0.00,,,0.00,meteohub,2013-02-17 05:21:00,
2013-02-17 00:26:00,53.1,36.9,30.17,NW,311,10.0,17.0,54,0.00,,,0.00,meteohub,2013-02-17 05:26:00,
2013-02-17 00:31:00,52.9,36.1,30.17,NNW,328,11.0,17.0,53,0.00,,,0.00,meteohub,2013-02-17 05:31:00,
2013-02-17 00:36:00,52.9,36.7,30.17,North,355,7.0,19.0,54,0.00,,,0.00,meteohub,2013-02-17 05:36:00,
2013-02-17 00:41:00,52.9,35.8,30.17,SSW,199,6.0,19.0,52,0.00,,,0.00,meteohub,2013-02-17 05:41:00,
2013-02-17 00:46:00,52.7,35.6,30.18,NNW,331,6.0,19.0,52,0.00,,,0.00,meteohub,2013-02-17 05:46:00,
2013-02-17 00:51:00,52.5,34.9,30.18,NNW,329,5.0,15.0,51,0.00,,,0.00,meteohub,2013-02-17 05:51:00,
2013-02-17 00:56:00,52.3,35.8,30.18,SW,232,6.0,16.0,53,0.00,,,0.00,meteohub,2013-02-17 05:56:00,
2013-02-17 01:01:00,52.3,33.8,30.18,NNE,22,6.0,16.0,49,0.00,,,0.00,meteohub,2013-02-17 06:01:00,
2013-02-17 01:06:00,52.3,34.7,30.19,West,281,6.0,13.0,51,0.00,,,0.00,meteohub,2013-02-17 06:06:00,
2013-02-17 01:11:00,52.2,34.2,30.19,NW,306,5.0,18.0,50,0.00,,,0.00,meteohub,2013-02-17 06:11:00,
2013-02-17 01:16:00,52.0,34.3,30.19,WSW,252,6.0,18.0,51,0.00,,,0.00,meteohub,2013-02-17 06:16:00,
2013-02-17 01:21:00,51.8,33.8,30.19,NNW,327,12.0,18.0,50,0.00,,,0.00,meteohub,2013-02-17 06:21:00,
2013-02-17 01:26:00,51.8,34.2,30.19,NNW,346,11.0,15.0,51,0.00,,,0.00,meteohub,2013-02-17 06:26:00,
2013-02-17 01:31:00,51.6,33.1,30.19,NW,316,5.0,16.0,49,0.00,,,0.00,meteohub,2013-02-17 06:31:00,
2013-02-17 01:36:00,51.6,33.1,30.19,NNW,329,6.0,16.0,49,0.00,,,0.00,meteohub,2013-02-17 06:36:00,
2013-02-17 01:41:00,51.4,32.9,30.19,NW,318,6.0,16.0,49,0.00,,,0.00,meteohub,2013-02-17 06:41:00,
2013-02-17 01:46:00,51.4,32.4,30.19,WNW,298,15.0,15.0,48,0.00,,,0.00,meteohub,2013-02-17 06:46:00,
2013-02-17 01:51:00,51.3,32.2,30.19,NW,321,8.0,15.0,48,0.00,,,0.00,meteohub,2013-02-17 06:51:00,
2013-02-17 01:56:00,51.3,32.2,30.19,NNW,342,3.0,15.0,48,0.00,,,0.00,meteohub,2013-02-17 06:56:00,
2013-02-17 02:01:00,51.1,32.0,30.19,NW,322,2.0,15.0,48,0.00,,,0.00,meteohub,2013-02-17 07:01:00,
2013-02-17 02:06:00,51.1,32.0,30.19,NNW,327,8.0,17.0,48,0.00,,,0.00,meteohub,2013-02-17 07:06:00,
2013-02-17 02:11:00,50.9,31.8,30.19,NW,315,6.0,17.0,48,0.00,,,0.00,meteohub,2013-02-17 07:11:00,
2013-02-17 02:16:00,50.7,31.3,30.19,NW,311,11.0,14.0,47,0.00,,,0.00,meteohub,2013-02-17 07:16:00,
2013-02-17 02:21:00,50.5,30.6,30.19,NNW,344,2.0,16.0,46,0.00,,,0.00,meteohub,2013-02-17 07:21:00,
2013-02-17 02:26:00,50.5,31.1,30.19,NNW,336,4.0,16.0,47,0.00,,,0.00,meteohub,2013-02-17 07:26:00,
2013-02-17 02:31:00,50.4,29.8,30.19,NW,311,5.0,14.0,45,0.00,,,0.00,meteohub,2013-02-17 07:31:00,
2013-02-17 02:36:00,50.4,29.8,30.19,NW,319,5.0,14.0,45,0.00,,,0.00,meteohub,2013-02-17 07:36:00,
2013-02-17 02:41:00,50.4,30.9,30.19,NW,319,10.0,14.0,47,0.00,,,0.00,meteohub,2013-02-17 07:41:00,
2013-02-17 02:47:00,50.2,30.7,30.19,NW,323,2.0,14.0,47,0.00,,,0.00,meteohub,2013-02-17 07:47:00,
2013-02-17 02:56:00,50.0,31.1,30.19,WNW,300,5.0,14.0,48,0.00,,,0.00,meteohub,2013-02-17 07:56:00,
2013-02-17 03:01:00,49.5,31.1,30.19,NNW,338,9.0,14.0,49,0.00,,,0.00,meteohub,2013-02-17 08:01:00,
2013-02-17 03:06:00,48.9,31.6,30.19,NNW,342,2.0,13.0,51,0.00,,,0.00,meteohub,2013-02-17 08:06:00,
2013-02-17 03:11:00,48.6,30.7,30.19,North,349,3.0,13.0,50,0.00,,,0.00,meteohub,2013-02-17 08:11:00,
2013-02-17 03:16:00,48.4,30.6,30.19,NNW,329,3.0,10.0,50,0.00,,,0.00,meteohub,2013-02-17 08:16:00,
2013-02-17 03:21:00,48.0,30.2,30.19,NNW,327,3.0,10.0,50,0.00,,,0.00,meteohub,2013-02-17 08:21:00,
2013-02-17 03:26:00,48.0,30.2,30.19,North,5,9.0,10.0,50,0.00,,,0.00,meteohub,2013-02-17 08:26:00,
2013-02-17 03:31:00,48.0,30.7,30.20,NNW,330,2.0,9.0,51,0.00,,,0.00,meteohub,2013-02-17 08:31:00,
2013-02-17 03:36:00,48.2,31.8,30.20,NNW,344,5.0,11.0,53,0.00,,,0.00,meteohub,2013-02-17 08:36:00,
2013-02-17 03:41:00,48.4,31.1,30.20,NW,315,3.0,11.0,51,0.00,,,0.00,meteohub,2013-02-17 08:41:00,
2013-02-17 03:46:00,48.2,30.4,30.20,NNW,344,5.0,11.0,50,0.00,,,0.00,meteohub,2013-02-17 08:46:00,
2013-02-17 03:51:00,48.0,30.7,30.20,NNW,338,5.0,14.0,51,0.00,,,0.00,meteohub,2013-02-17 08:51:00,
2013-02-17 03:56:00,48.0,30.7,30.20,NNW,348,8.0,14.0,51,0.00,,,0.00,meteohub,2013-02-17 08:56:00,
2013-02-17 04:01:00,47.8,30.0,30.20,NNW,336,7.0,14.0,50,0.00,,,0.00,meteohub,2013-02-17 09:01:00,
2013-02-17 04:06:00,47.8,30.0,30.21,NW,324,5.0,13.0,50,0.00,,,0.00,meteohub,2013-02-17 09:06:00,
2013-02-17 04:11:00,47.8,30.0,30.21,NNW,331,5.0,15.0,50,0.00,,,0.00,meteohub,2013-02-17 09:11:00,
2013-02-17 04:16:00,47.7,30.0,30.21,NNW,334,4.0,15.0,50,0.00,,,0.00,meteohub,2013-02-17 09:16:00,
2013-02-17 04:21:00,47.5,29.8,30.21,NNW,336,7.0,15.0,50,0.00,,,0.00,meteohub,2013-02-17 09:21:00,
2013-02-17 04:26:00,46.9,27.7,30.21,NNW,344,1.0,15.0,47,0.00,,,0.00,meteohub,2013-02-17 09:26:00,
2013-02-17 04:31:00,46.0,26.4,30.21,North,355,1.0,15.0,46,0.00,,,0.00,meteohub,2013-02-17 09:31:00,
2013-02-17 04:36:00,45.3,25.7,30.21,NNE,20,3.0,11.0,46,0.00,,,0.00,meteohub,2013-02-17 09:36:00,
2013-02-17 04:41:00,44.8,25.3,30.21,NNE,19,3.0,7.0,46,0.00,,,0.00,meteohub,2013-02-17 09:41:00,
2013-02-17 04:46:00,44.4,24.4,30.22,North,5,3.0,7.0,45,0.00,,,0.00,meteohub,2013-02-17 09:46:00,
2013-02-17 04:51:00,44.1,24.1,30.22,North,5,3.0,6.0,45,0.00,,,0.00,meteohub,2013-02-17 09:51:00,
2013-02-17 04:56:00,43.9,23.9,30.22,NNE,13,7.0,7.0,45,0.00,,,0.00,meteohub,2013-02-17 09:56:00,
2013-02-17 05:01:00,43.9,23.4,30.22,North,355,5.0,9.0,44,0.00,,,0.00,meteohub,2013-02-17 10:01:00,
2013-02-17 05:06:00,43.9,23.4,30.22,North,355,0.0,9.0,44,0.00,,,0.00,meteohub,2013-02-17 10:06:00,
2013-02-17 05:11:00,43.5,22.5,30.23,North,9,2.0,9.0,43,0.00,,,0.00,meteohub,2013-02-17 10:11:00,
2013-02-17 05:16:00,43.5,22.5,30.23,North,355,5.0,9.0,43,0.00,,,0.00,meteohub,2013-02-17 10:16:00,
2013-02-17 05:21:00,43.3,22.3,30.23,North,355,4.0,11.0,43,0.00,,,0.00,meteohub,2013-02-17 10:21:00,
2013-02-17 05:26:00,43.3,21.7,30.24,NNW,327,4.0,11.0,42,0.00,,,0.00,meteohub,2013-02-17 10:26:00,
2013-02-17 05:31:00,43.2,22.1,30.24,NNW,348,2.0,11.0,43,0.00,,,0.00,meteohub,2013-02-17 10:31:00,
2013-02-17 05:36:00,43.2,21.6,30.24,North,5,2.0,9.0,42,0.00,,,0.00,meteohub,2013-02-17 10:36:00,
2013-02-17 05:41:00,43.0,22.1,30.25,North,355,3.0,12.0,43,0.00,,,0.00,meteohub,2013-02-17 10:41:00,
2013-02-17 05:46:00,43.0,22.1,30.25,North,355,3.0,12.0,43,0.00,,,0.00,meteohub,2013-02-17 10:46:00,
2013-02-17 05:51:00,42.8,21.4,30.25,NNW,341,7.0,12.0,42,0.00,,,0.00,meteohub,2013-02-17 10:51:00,
2013-02-17 05:56:00,42.6,21.7,30.25,NNW,331,4.0,8.0,43,0.00,,,0.00,meteohub,2013-02-17 10:56:00,
2013-02-17 06:01:00,42.4,21.6,30.25,NNE,18,3.0,8.0,43,0.00,,,0.00,meteohub,2013-02-17 11:01:00,
2013-02-17 06:06:00,42.3,20.8,30.25,NNW,333,2.0,8.0,42,0.00,,,0.00,meteohub,2013-02-17 11:06:00,
2013-02-17 06:11:00,42.1,20.7,30.26,NNW,346,5.0,11.0,42,0.00,,,0.00,meteohub,2013-02-17 11:11:00,
2013-02-17 06:16:00,41.7,20.3,30.26,NNE,23,6.0,11.0,42,0.00,,,0.00,meteohub,2013-02-17 11:16:00,
2013-02-17 06:21:00,41.7,20.3,30.26,NNE,16,1.0,11.0,42,0.00,,,0.00,meteohub,2013-02-17 11:21:00,
2013-02-17 06:26:00,41.5,19.6,30.26,North,5,5.0,9.0,41,0.00,,,0.00,meteohub,2013-02-17 11:26:00,
2013-02-17 06:31:00,41.5,19.6,30.27,North,5,0.0,10.0,41,0.00,,,0.00,meteohub,2013-02-17 11:31:00,
2013-02-17 06:36:00,41.4,19.9,30.27,NNE,21,2.0,10.0,42,0.00,,,0.00,meteohub,2013-02-17 11:36:00,
2013-02-17 06:41:00,41.4,19.4,30.27,North,350,2.0,10.0,41,0.00,,,0.00,meteohub,2013-02-17 11:41:00,
2013-02-17 06:46:00,41.4,19.9,30.27,NW,323,1.0,9.0,42,0.00,,,0.00,meteohub,2013-02-17 11:46:00,
2013-02-17 06:51:00,41.4,19.4,30.27,NNW,342,5.0,11.0,41,0.00,,,0.00,meteohub,2013-02-17 11:51:00,
2013-02-17 06:56:00,41.4,19.9,30.27,NNE,21,1.0,11.0,42,0.00,,,0.00,meteohub,2013-02-17 11:56:00,
2013-02-17 07:01:00,41.4,19.9,30.27,NNE,14,3.0,11.0,42,0.00,,,0.00,meteohub,2013-02-17 12:01:00,
2013-02-17 07:06:00,41.2,19.8,30.27,NNE,25,3.0,10.0,42,0.00,,,0.00,meteohub,2013-02-17 12:06:00,
2013-02-17 07:11:00,41.2,19.2,30.27,NNE,19,3.0,9.0,41,0.00,,,0.00,meteohub,2013-02-17 12:11:00,
2013-02-17 07:16:00,41.2,19.2,30.27,NNE,13,1.0,9.0,41,0.00,,,0.00,meteohub,2013-02-17 12:16:00,
2013-02-17 07:21:00,41.4,19.4,30.28,North,5,4.0,12.0,41,0.00,,,0.00,meteohub,2013-02-17 12:21:00,
2013-02-17 07:26:00,41.2,19.8,30.28,North,350,2.0,12.0,42,0.00,,,0.00,meteohub,2013-02-17 12:26:00,
2013-02-17 07:31:00,41.4,19.4,30.28,North,5,1.0,9.0,41,0.00,,,0.00,meteohub,2013-02-17 12:31:00,
2013-02-17 07:36:00,41.4,19.9,30.28,North,10,2.0,10.0,42,0.00,,,0.00,meteohub,2013-02-17 12:36:00,
2013-02-17 07:41:00,41.4,19.4,30.29,NW,321,6.0,10.0,41,0.00,,,0.00,meteohub,2013-02-17 12:41:00,
2013-02-17 07:46:00,41.5,19.6,30.29,NNE,22,3.0,12.0,41,0.00,,,0.00,meteohub,2013-02-17 12:46:00,
2013-02-17 07:51:00,41.5,20.1,30.29,NE,35,2.0,12.0,42,0.00,,,0.00,meteohub,2013-02-17 12:51:00,
2013-02-17 07:56:00,41.7,20.3,30.29,NNE,17,3.0,12.0,42,0.00,,,0.00,meteohub,2013-02-17 12:56:00,
2013-02-17 08:01:00,41.7,19.8,30.29,North,355,4.0,12.0,41,0.00,,,0.00,meteohub,2013-02-17 13:01:00,
2013-02-17 08:06:00,41.9,20.5,30.30,North,5,3.0,10.0,42,0.00,,,0.00,meteohub,2013-02-17 13:06:00,
2013-02-17 08:11:00,42.1,20.7,30.30,ENE,58,4.0,10.0,42,0.00,,,0.00,meteohub,2013-02-17 13:11:00,
2013-02-17 08:16:00,42.4,21.0,30.30,NNE,13,1.0,10.0,42,0.00,,,0.00,meteohub,2013-02-17 13:16:00,
2013-02-17 08:21:00,42.8,21.4,30.31,ENE,71,3.0,10.0,42,0.00,,,0.00,meteohub,2013-02-17 13:21:00,
2013-02-17 08:26:00,43.2,21.0,30.31,NNE,20,3.0,9.0,41,0.00,,,0.00,meteohub,2013-02-17 13:26:00,
2013-02-17 08:31:00,43.3,20.7,30.31,NNE,31,2.0,9.0,40,0.00,,,0.00,meteohub,2013-02-17 13:31:00,
2013-02-17 08:36:00,43.5,21.4,30.31,NE,51,5.0,12.0,41,0.00,,,0.00,meteohub,2013-02-17 13:36:00,
2013-02-17 08:41:00,44.1,21.2,30.32,NNE,15,3.0,12.0,40,0.00,,,0.00,meteohub,2013-02-17 13:41:00,
2013-02-17 08:46:00,44.1,21.2,30.32,North,5,4.0,11.0,40,0.00,,,0.00,meteohub,2013-02-17 13:46:00,
2013-02-17 08:51:00,44.4,21.6,30.32,North,10,1.0,9.0,40,0.00,,,0.00,meteohub,2013-02-17 13:51:00,
2013-02-17 08:56:00,44.4,21.0,30.32,North,355,4.0,10.0,39,0.00,,,0.00,meteohub,2013-02-17 13:56:00,
2013-02-17 09:01:00,44.8,21.4,30.33,North,355,3.0,10.0,39,0.00,,,0.00,meteohub,2013-02-17 14:01:00,
2013-02-17 09:06:00,44.8,22.5,30.33,NNW,333,4.0,12.0,41,0.00,,,0.00,meteohub,2013-02-17 14:06:00,
2013-02-17 09:11:00,44.8,22.5,30.33,NNW,348,3.0,12.0,41,0.00,,,0.00,meteohub,2013-02-17 14:11:00,
2013-02-17 09:16:00,45.0,21.6,30.34,NNE,13,9.0,13.0,39,0.00,,,0.00,meteohub,2013-02-17 14:16:00,
2013-02-17 09:21:00,45.0,22.6,30.33,NNE,24,8.0,13.0,41,0.00,,,0.00,meteohub,2013-02-17 14:21:00,
2013-02-17 09:26:00,45.0,22.6,30.34,WNW,300,6.0,12.0,41,0.00,,,0.00,meteohub,2013-02-17 14:26:00,
2013-02-17 09:31:00,45.1,22.3,30.34,North,10,9.0,15.0,40,0.00,,,0.00,meteohub,2013-02-17 14:31:00,
2013-02-17 09:36:00,45.5,23.7,30.34,WNW,303,8.0,16.0,42,0.00,,,0.00,meteohub,2013-02-17 14:36:00,
2013-02-17 09:41:00,45.9,23.5,30.34,North,355,1.0,16.0,41,0.00,,,0.00,meteohub,2013-02-17 14:41:00,
2013-02-17 09:46:00,45.9,23.5,30.34,NNW,329,9.0,16.0,41,0.00,,,0.00,meteohub,2013-02-17 14:46:00,
2013-02-17 09:51:00,46.0,24.3,30.34,NNW,336,10.0,14.0,42,0.00,,,0.00,meteohub,2013-02-17 14:51:00,
2013-02-17 09:56:00,46.2,23.9,30.34,NNW,346,6.0,14.0,41,0.00,,,0.00,meteohub,2013-02-17 14:56:00,
2013-02-17 10:01:00,46.6,23.5,30.34,NNE,33,3.0,12.0,40,0.00,,,0.00,meteohub,2013-02-17 15:01:00,
2013-02-17 10:06:00,46.9,25.0,30.34,NNE,13,6.0,12.0,42,0.00,,,0.00,meteohub,2013-02-17 15:06:00,
2013-02-17 10:11:00,47.3,25.3,30.34,NNW,332,7.0,13.0,42,0.00,,,0.00,meteohub,2013-02-17 15:11:00,
2013-02-17 10:16:00,47.3,27.0,30.34,NNW,338,3.0,13.0,45,0.00,,,0.00,meteohub,2013-02-17 15:16:00,
2013-02-17 10:21:00,46.9,26.2,30.34,NW,318,14.0,14.0,44,0.00,,,0.00,meteohub,2013-02-17 15:21:00,
2013-02-17 10:26:00,47.1,27.3,30.34,NNW,336,2.0,16.0,46,0.00,,,0.00,meteohub,2013-02-17 15:26:00,
2013-02-17 10:31:00,48.2,28.4,30.34,NW,313,5.0,16.0,46,0.00,,,0.00,meteohub,2013-02-17 15:31:00,
2013-02-17 10:36:00,48.0,28.2,30.35,West,273,4.0,16.0,46,0.00,,,0.00,meteohub,2013-02-17 15:36:00,
2013-02-17 10:41:00,48.0,28.2,30.35,North,0,9.0,11.0,46,0.00,,,0.00,meteohub,2013-02-17 15:41:00,
2013-02-17 10:46:00,48.0,28.8,30.35,NW,324,6.0,11.0,47,0.00,,,0.00,meteohub,2013-02-17 15:46:00,
2013-02-17 10:51:00,47.3,28.6,30.35,NNW,344,6.0,15.0,48,0.00,,,0.00,meteohub,2013-02-17 15:51:00,
2013-02-17 10:56:00,47.7,28.4,30.35,NW,320,6.0,15.0,47,0.00,,,0.00,meteohub,2013-02-17 15:56:00,
2013-02-17 11:01:00,48.0,28.8,30.35,NW,310,7.0,16.0,47,0.00,,,0.00,meteohub,2013-02-17 16:01:00,
2013-02-17 11:06:00,48.0,28.2,30.35,NW,319,8.0,16.0,46,0.00,,,0.00,meteohub,2013-02-17 16:06:00,
2013-02-17 11:11:00,47.7,28.4,30.36,NNW,327,8.0,16.0,47,0.00,,,0.00,meteohub,2013-02-17 16:11:00,
2013-02-17 11:16:00,47.5,28.2,30.36,NNE,16,10.0,15.0,47,0.00,,,0.00,meteohub,2013-02-17 16:16:00,
2013-02-17 11:21:00,47.8,29.1,30.36,NNW,338,8.0,15.0,48,0.00,,,0.00,meteohub,2013-02-17 16:21:00,
2013-02-17 11:26:00,47.8,28.6,30.36,NNW,334,3.0,13.0,47,0.00,,,0.00,meteohub,2013-02-17 16:26:00,
2013-02-17 11:31:00,48.4,29.7,30.36,NNW,338,7.0,13.0,48,0.00,,,0.00,meteohub,2013-02-17 16:31:00,
2013-02-17 11:36:00,48.4,29.1,30.36,NW,320,3.0,14.0,47,0.00,,,0.00,meteohub,2013-02-17 16:36:00,
2013-02-17 11:41:00,48.2,29.5,30.35,SW,228,4.0,14.0,48,0.00,,,0.00,meteohub,2013-02-17 16:41:00,
2013-02-17 11:46:00,48.4,29.7,30.35,NE,55,6.0,14.0,48,0.00,,,0.00,meteohub,2013-02-17 16:46:00,
2013-02-17 11:51:00,48.6,29.3,30.35,NW,321,4.0,14.0,47,0.00,,,0.00,meteohub,2013-02-17 16:51:00,
2013-02-17 11:56:00,47.8,29.7,30.35,NNW,346,7.0,13.0,49,0.00,,,0.00,meteohub,2013-02-17 16:56:00,
2013-02-17 12:01:00,48.7,29.5,30.35,NNE,24,4.0,14.0,47,0.00,,,0.00,meteohub,2013-02-17 17:01:00,
2013-02-17 12:06:00,49.1,30.2,30.35,WNW,290,6.0,14.0,48,0.00,,,0.00,meteohub,2013-02-17 17:06:00,
2013-02-17 12:11:00,48.7,29.8,30.35,NNW,333,8.0,14.0,48,0.00,,,0.00,meteohub,2013-02-17 17:11:00,
2013-02-17 12:16:00,48.6,29.3,30.35,NNW,337,10.0,15.0,47,0.00,,,0.00,meteohub,2013-02-17 17:16:00,
2013-02-17 12:21:00,48.9,29.7,30.35,NW,323,2.0,15.0,47,0.00,,,0.00,meteohub,2013-02-17 17:21:00,
2013-02-17 12:26:00,48.6,28.8,30.35,NNW,348,4.0,15.0,46,0.00,,,0.00,meteohub,2013-02-17 17:26:00,
2013-02-17 12:31:00,48.7,29.5,30.35,NNW,333,5.0,12.0,47,0.00,,,0.00,meteohub,2013-02-17 17:31:00,
2013-02-17 12:36:00,49.3,29.8,30.35,NW,325,8.0,13.0,47,0.00,,,0.00,meteohub,2013-02-17 17:36:00,
2013-02-17 12:41:00,48.9,28.6,30.35,NNE,19,10.0,13.0,45,0.00,,,0.00,meteohub,2013-02-17 17:41:00,
2013-02-17 12:46:00,48.6,28.8,30.35,NNW,327,5.0,16.0,46,0.00,,,0.00,meteohub,2013-02-17 17:46:00,
2013-02-17 12:51:00,48.9,29.7,30.34,WNW,302,5.0,16.0,47,0.00,,,0.00,meteohub,2013-02-17 17:51:00,
2013-02-17 12:56:00,49.3,29.3,30.34,NW,311,1.0,16.0,46,0.00,,,0.00,meteohub,2013-02-17 17:56:00,
2013-02-17 13:01:00,49.8,29.3,30.34,NNW,344,4.0,14.0,45,0.00,,,0.00,meteohub,2013-02-17 18:01:00,
2013-02-17 13:06:00,49.6,28.0,30.34,NW,307,11.0,13.0,43,0.00,,,0.00,meteohub,2013-02-17 18:06:00,
2013-02-17 13:11:00,50.0,28.4,30.34,North,0,11.0,13.0,43,0.00,,,0.00,meteohub,2013-02-17 18:11:00,
2013-02-17 13:16:00,49.6,28.6,30.34,SW,216,3.0,13.0,44,0.00,,,0.00,meteohub,2013-02-17 18:16:00,
2013-02-17 13:21:00,49.8,28.2,30.34,WNW,293,5.0,13.0,43,0.00,,,0.00,meteohub,2013-02-17 18:21:00,
2013-02-17 13:26:00,49.8,28.2,30.33,NW,310,8.0,13.0,43,0.00,,,0.00,meteohub,2013-02-17 18:26:00,
2013-02-17 13:31:00,49.8,28.2,30.33,North,11,9.0,13.0,43,0.00,,,0.00,meteohub,2013-02-17 18:31:00,
2013-02-17 13:36:00,49.6,27.5,30.33,WNW,292,2.0,15.0,42,0.00,,,0.00,meteohub,2013-02-17 18:36:00,
2013-02-17 13:41:00,50.2,29.1,30.33,North,5,4.0,15.0,44,0.00,,,0.00,meteohub,2013-02-17 18:41:00,
2013-02-17 13:46:00,49.8,28.8,30.33,NW,311,7.0,15.0,44,0.00,,,0.00,meteohub,2013-02-17 18:46:00,
2013-02-17 13:51:00,49.6,29.7,30.33,NNW,329,6.0,14.0,46,0.00,,,0.00,meteohub,2013-02-17 18:51:00,
2013-02-17 13:56:00,49.8,28.2,30.32,NNW,346,7.0,14.0,43,0.00,,,0.00,meteohub,2013-02-17 18:56:00,
2013-02-17 14:01:00,49.6,28.6,30.32,NW,321,4.0,14.0,44,0.00,,,0.00,meteohub,2013-02-17 19:01:00,
2013-02-17 14:06:00,50.2,28.6,30.32,North,349,2.0,13.0,43,0.00,,,0.00,meteohub,2013-02-17 19:06:00,
2013-02-17 14:11:00,50.9,29.1,30.32,NNW,327,9.0,13.0,43,0.00,,,0.00,meteohub,2013-02-17 19:11:00,
2013-02-17 14:16:00,50.5,27.7,30.32,West,270,2.0,13.0,41,0.00,,,0.00,meteohub,2013-02-17 19:16:00,
2013-02-17 14:21:00,49.8,27.7,30.31,WNW,289,4.0,13.0,42,0.00,,,0.00,meteohub,2013-02-17 19:21:00,
2013-02-17 14:26:00,50.4,28.8,30.31,North,355,5.0,12.0,43,0.00,,,0.00,meteohub,2013-02-17 19:26:00,
2013-02-17 14:31:00,50.2,28.0,30.32,NNW,327,6.0,12.0,42,0.00,,,0.00,meteohub,2013-02-17 19:31:00,
2013-02-17 14:36:00,50.2,29.1,30.31,NW,319,7.0,12.0,44,0.00,,,0.00,meteohub,2013-02-17 19:36:00,
2013-02-17 14:41:00,49.6,28.6,30.31,West,259,3.0,12.0,44,0.00,,,0.00,meteohub,2013-02-17 19:41:00,
2013-02-17 14:46:00,50.2,28.6,30.31,WNW,299,6.0,15.0,43,0.00,,,0.00,meteohub,2013-02-17 19:46:00,
2013-02-17 14:51:00,50.5,29.5,30.31,NNW,342,6.0,15.0,44,0.00,,,0.00,meteohub,2013-02-17 19:51:00,
2013-02-17 14:56:00,50.2,29.7,30.31,SW,232,1.0,15.0,45,0.00,,,0.00,meteohub,2013-02-17 19:56:00,
2013-02-17 15:01:00,50.9,30.4,30.31,NW,319,4.0,14.0,45,0.00,,,0.00,meteohub,2013-02-17 20:01:00,
2013-02-17 15:06:00,50.9,29.8,30.31,NNW,330,9.0,14.0,44,0.00,,,0.00,meteohub,2013-02-17 20:06:00,
2013-02-17 15:11:00,50.7,29.7,30.31,WNW,282,1.0,13.0,44,0.00,,,0.00,meteohub,2013-02-17 20:11:00,
2013-02-17 15:16:00,50.5,28.2,30.31,NNW,331,9.0,13.0,42,0.00,,,0.00,meteohub,2013-02-17 20:16:00,
2013-02-17 15:21:00,50.4,28.8,30.31,NNW,348,11.0,14.0,43,0.00,,,0.00,meteohub,2013-02-17 20:21:00,
2013-02-17 15:26:00,50.0,27.1,30.31,NW,325,10.0,15.0,41,0.00,,,0.00,meteohub,2013-02-17 20:26:00,
2013-02-17 15:31:00,49.8,27.7,30.31,North,355,6.0,15.0,42,0.00,,,0.00,meteohub,2013-02-17 20:31:00,
2013-02-17 15:36:00,50.0,27.1,30.31,NW,315,6.0,14.0,41,0.00,,,0.00,meteohub,2013-02-17 20:36:00,
2013-02-17 15:41:00,50.5,25.9,30.31,NW,305,6.0,13.0,38,0.00,,,0.00,meteohub,2013-02-17 20:41:00,
2013-02-17 15:46:00,51.1,27.0,30.30,NW,320,3.0,11.0,39,0.00,,,0.00,meteohub,2013-02-17 20:46:00,
2013-02-17 15:51:00,51.1,26.4,30.31,NNW,336,7.0,8.0,38,0.00,,,0.00,meteohub,2013-02-17 20:51:00,
2013-02-17 15:56:00,50.7,29.1,30.30,NW,313,3.0,13.0,43,0.00,,,0.00,meteohub,2013-02-17 20:56:00,
2013-02-17 16:01:00,50.5,28.2,30.30,North,355,6.0,13.0,42,0.00,,,0.00,meteohub,2013-02-17 21:01:00,
2013-02-17 16:06:00,51.1,27.7,30.30,NW,320,5.0,13.0,40,0.00,,,0.00,meteohub,2013-02-17 21:06:00,
2013-02-17 16:11:00,51.1,27.0,30.30,NW,325,6.0,10.0,39,0.00,,,0.00,meteohub,2013-02-17 21:11:00,
2013-02-17 16:16:00,50.9,27.5,30.30,WNW,300,2.0,10.0,40,0.00,,,0.00,meteohub,2013-02-17 21:16:00,
2013-02-17 16:21:00,51.3,27.1,30.30,NNW,342,5.0,10.0,39,0.00,,,0.00,meteohub,2013-02-17 21:21:00,
2013-02-17 16:26:00,50.9,26.2,30.30,NW,321,5.0,10.0,38,0.00,,,0.00,meteohub,2013-02-17 21:26:00,
2013-02-17 16:31:00,50.9,27.5,30.30,WNW,294,5.0,8.0,40,0.00,,,0.00,meteohub,2013-02-17 21:31:00,
2013-02-17 16:36:00,50.5,26.4,30.30,NNW,345,3.0,8.0,39,0.00,,,0.00,meteohub,2013-02-17 21:36:00,
2013-02-17 16:41:00,50.5,27.7,30.30,NW,319,7.0,10.0,41,0.00,,,0.00,meteohub,2013-02-17 21:41:00,
2013-02-17 16:46:00,50.5,28.2,30.30,WNW,294,4.0,10.0,42,0.00,,,0.00,meteohub,2013-02-17 21:46:00,
2013-02-17 16:51:00,50.2,28.0,30.30,North,0,3.0,10.0,42,0.00,,,0.00,meteohub,2013-02-17 21:51:00,
2013-02-17 16:56:00,50.4,28.2,30.30,NNW,327,7.0,11.0,42,0.00,,,0.00,meteohub,2013-02-17 21:56:00,
2013-02-17 17:01:00,49.8,28.8,30.30,NW,317,3.0,11.0,44,0.00,,,0.00,meteohub,2013-02-17 22:01:00,
2013-02-17 17:06:00,49.6,29.1,30.30,NW,326,1.0,12.0,45,0.00,,,0.00,meteohub,2013-02-17 22:06:00,
2013-02-17 17:11:00,49.8,29.3,30.30,NW,325,3.0,12.0,45,0.00,,,0.00,meteohub,2013-02-17 22:11:00,
2013-02-17 17:16:00,50.4,29.8,30.30,WNW,301,4.0,12.0,45,0.00,,,0.00,meteohub,2013-02-17 22:16:00,
2013-02-17 17:21:00,50.4,29.3,30.30,NW,324,2.0,9.0,44,0.00,,,0.00,meteohub,2013-02-17 22:21:00,
2013-02-17 17:26:00,50.2,29.7,30.30,NNW,347,3.0,8.0,45,0.00,,,0.00,meteohub,2013-02-17 22:26:00,
2013-02-17 17:31:00,50.2,29.1,30.30,NW,308,3.0,8.0,44,0.00,,,0.00,meteohub,2013-02-17 22:31:00,
2013-02-17 17:36:00,49.8,28.2,30.30,NNW,327,3.0,8.0,43,0.00,,,0.00,meteohub,2013-02-17 22:36:00,
2013-02-17 17:41:00,49.6,29.7,30.30,NW,311,4.0,7.0,46,0.00,,,0.00,meteohub,2013-02-17 22:41:00,
2013-02-17 17:46:00,49.6,30.2,30.30,NNW,331,2.0,7.0,47,0.00,,,0.00,meteohub,2013-02-17 22:46:00,
2013-02-17 17:51:00,49.6,29.7,30.30,NNW,336,3.0,7.0,46,0.00,,,0.00,meteohub,2013-02-17 22:51:00,
2013-02-17 17:56:00,49.5,30.0,30.30,NNW,348,2.0,6.0,47,0.00,,,0.00,meteohub,2013-02-17 22:56:00,
2013-02-17 18:01:00,49.3,30.4,30.30,NW,311,3.0,6.0,48,0.00,,,0.00,meteohub,2013-02-17 23:01:00,
2013-02-17 18:06:00,48.9,30.0,30.30,North,355,3.0,7.0,48,0.00,,,0.00,meteohub,2013-02-17 23:06:00,
2013-02-17 18:11:00,48.7,29.8,30.30,NNW,339,2.0,7.0,48,0.00,,,0.00,meteohub,2013-02-17 23:11:00,
2013-02-17 18:16:00,48.6,30.7,30.30,NW,324,0.0,7.0,50,0.00,,,0.00,meteohub,2013-02-17 23:16:00,
2013-02-17 18:21:00,48.2,30.9,30.30,NW,313,1.0,7.0,51,0.00,,,0.00,meteohub,2013-02-17 23:21:00,
2013-02-17 18:26:00,48.0,31.3,30.30,NW,311,1.0,5.0,52,0.00,,,0.00,meteohub,2013-02-17 23:26:00,
2013-02-17 18:31:00,47.8,31.1,30.30,NW,317,1.0,5.0,52,0.00,,,0.00,meteohub,2013-02-17 23:31:00,
2013-02-17 18:36:00,47.7,31.3,30.30,NW,317,1.0,4.0,53,0.00,,,0.00,meteohub,2013-02-17 23:36:00,
2013-02-17 18:41:00,47.3,31.1,30.30,NW,318,0.0,4.0,53,0.00,,,0.00,meteohub,2013-02-17 23:41:00,
2013-02-17 18:46:00,47.1,30.9,30.31,NNW,331,1.0,2.0,53,0.00,,,0.00,meteohub,2013-02-17 23:46:00,
2013-02-17 18:51:00,46.9,30.7,30.30,NNW,331,1.0,2.0,53,0.00,,,0.00,meteohub,2013-02-17 23:51:00,
2013-02-17 18:56:00,46.8,30.6,30.30,NNW,336,0.0,2.0,53,0.00,,,0.00,meteohub,2013-02-17 23:56:00,
2013-02-17 19:01:00,46.4,30.7,30.30,NNW,336,2.0,2.0,54,0.00,,,0.00,meteohub,2013-02-18 00:01:00,
2013-02-17 19:06:00,46.2,30.6,30.30,NNW,336,0.0,2.0,54,0.00,,,0.00,meteohub,2013-02-18 00:06:00,
2013-02-17 19:11:00,46.0,30.7,30.31,NNW,336,0.0,2.0,55,0.00,,,0.00,meteohub,2013-02-18 00:11:00,
2013-02-17 19:16:00,45.7,30.9,30.31,NNW,336,0.0,2.0,56,0.00,,,0.00,meteohub,2013-02-18 00:16:00,
2013-02-17 19:21:00,45.3,30.9,30.31,NNW,336,0.0,1.0,57,0.00,,,0.00,meteohub,2013-02-18 00:21:00,
2013-02-17 19:26:00,45.1,31.6,30.31,NNW,336,0.0,1.0,59,0.00,,,0.00,meteohub,2013-02-18 00:26:00,
2013-02-17 19:31:00,44.8,31.3,30.31,NNW,336,0.0,1.0,59,0.00,,,0.00,meteohub,2013-02-18 00:31:00,
2013-02-17 19:36:00,44.4,31.8,30.31,NNW,336,0.0,1.0,61,0.00,,,0.00,meteohub,2013-02-18 00:36:00,
2013-02-17 19:41:00,44.2,31.6,30.31,NNW,336,0.0,1.0,61,0.00,,,0.00,meteohub,2013-02-18 00:41:00,
2013-02-17 19:46:00,44.2,31.6,30.31,NNW,336,0.0,1.0,61,0.00,,,0.00,meteohub,2013-02-18 00:46:00,
2013-02-17 19:51:00,44.1,31.5,30.31,NNW,336,0.0,1.0,61,0.00,,,0.00,meteohub,2013-02-18 00:51:00,
2013-02-17 19:56:00,43.9,31.6,30.31,NNW,336,0.0,1.0,62,0.00,,,0.00,meteohub,2013-02-18 00:56:00,
2013-02-17 20:01:00,43.7,31.5,30.32,NNW,336,0.0,1.0,62,0.00,,,0.00,meteohub,2013-02-18 01:01:00,
2013-02-17 20:06:00,43.5,32.2,30.32,NNW,336,0.0,1.0,64,0.00,,,0.00,meteohub,2013-02-18 01:06:00,
2013-02-17 20:11:00,43.3,31.6,30.32,NNW,336,0.0,0.0,63,0.00,,,0.00,meteohub,2013-02-18 01:11:00,
2013-02-17 20:16:00,43.2,32.2,30.32,NNW,336,0.0,0.0,65,0.00,,,0.00,meteohub,2013-02-18 01:16:00,
2013-02-17 20:21:00,43.0,32.4,30.32,NNW,336,0.0,0.0,66,0.00,,,0.00,meteohub,2013-02-18 01:21:00,
2013-02-17 20:26:00,42.8,32.2,30.32,NNW,336,0.0,0.0,66,0.00,,,0.00,meteohub,2013-02-18 01:26:00,
2013-02-17 20:31:00,42.8,32.2,30.32,NNW,336,0.0,1.0,66,0.00,,,0.00,meteohub,2013-02-18 01:31:00,
2013-02-17 20:36:00,42.6,32.0,30.32,NNW,336,0.0,1.0,66,0.00,,,0.00,meteohub,2013-02-18 01:36:00,
2013-02-17 20:41:00,42.4,32.2,30.33,NNW,336,0.0,0.0,67,0.00,,,0.00,meteohub,2013-02-18 01:41:00,
2013-02-17 20:46:00,42.3,32.2,30.33,NNW,336,0.0,0.0,67,0.00,,,0.00,meteohub,2013-02-18 01:46:00,
2013-02-17 20:51:00,42.1,32.4,30.33,NNW,336,0.0,0.0,68,0.00,,,0.00,meteohub,2013-02-18 01:51:00,
2013-02-17 20:56:00,41.7,32.0,30.33,NNW,336,0.0,0.0,68,0.00,,,0.00,meteohub,2013-02-18 01:56:00,
2013-02-17 21:01:00,41.4,32.0,30.33,NNW,336,0.0,0.0,69,0.00,,,0.00,meteohub,2013-02-18 02:01:00,
2013-02-17 21:06:00,41.2,32.2,30.34,NNW,336,0.0,0.0,70,0.00,,,0.00,meteohub,2013-02-18 02:06:00,
2013-02-17 21:11:00,41.0,32.4,30.34,NNW,336,0.0,0.0,71,0.00,,,0.00,meteohub,2013-02-18 02:11:00,
2013-02-17 21:16:00,40.8,32.5,30.34,NNW,336,0.0,0.0,72,0.00,,,0.00,meteohub,2013-02-18 02:16:00,
2013-02-17 21:21:00,40.6,32.7,30.34,NNW,336,0.0,0.0,73,0.00,,,0.00,meteohub,2013-02-18 02:21:00,
2013-02-17 21:26:00,40.5,32.5,30.34,NNW,336,0.0,0.0,73,0.00,,,0.00,meteohub,2013-02-18 02:26:00,
2013-02-17 21:31:00,40.1,32.5,30.34,NNW,336,0.0,0.0,74,0.00,,,0.00,meteohub,2013-02-18 02:31:00,
2013-02-17 21:36:00,39.7,32.5,30.34,NNW,336,0.0,0.0,75,0.00,,,0.00,meteohub,2013-02-18 02:36:00,
2013-02-17 21:41:00,39.6,32.5,30.34,NNW,336,0.0,0.0,76,0.00,,,0.00,meteohub,2013-02-18 02:41:00,
2013-02-17 21:46:00,39.4,32.7,30.35,NNW,336,0.0,0.0,77,0.00,,,0.00,meteohub,2013-02-18 02:46:00,
2013-02-17 21:51:00,39.0,32.4,30.35,NNW,336,0.0,0.0,77,0.00,,,0.00,meteohub,2013-02-18 02:51:00,
2013-02-17 21:56:00,38.8,32.5,30.35,NNW,336,0.0,0.0,78,0.00,,,0.00,meteohub,2013-02-18 02:56:00,
2013-02-17 22:01:00,38.7,32.7,30.35,NNW,336,0.0,0.0,79,0.00,,,0.00,meteohub,2013-02-18 03:01:00,
2013-02-17 22:06:00,38.5,32.9,30.35,NNW,336,0.0,0.0,80,0.00,,,0.00,meteohub,2013-02-18 03:06:00,
2013-02-17 22:11:00,38.5,32.9,30.35,NNW,336,0.0,0.0,80,0.00,,,0.00,meteohub,2013-02-18 03:11:00,
2013-02-17 22:16:00,38.5,33.1,30.35,NNW,336,0.0,0.0,81,0.00,,,0.00,meteohub,2013-02-18 03:16:00,
2013-02-17 22:21:00,38.5,33.1,30.35,NNW,336,0.0,0.0,81,0.00,,,0.00,meteohub,2013-02-18 03:21:00,
2013-02-17 22:26:00,38.3,33.3,30.35,NNW,336,0.0,0.0,82,0.00,,,0.00,meteohub,2013-02-18 03:26:00,
2013-02-17 22:31:00,38.1,33.1,30.35,NNW,336,0.0,0.0,82,0.00,,,0.00,meteohub,2013-02-18 03:31:00,
2013-02-17 22:36:00,37.9,33.3,30.35,NNW,336,0.0,0.0,83,0.00,,,0.00,meteohub,2013-02-18 03:36:00,
2013-02-17 22:41:00,37.9,32.9,30.35,NNW,336,0.0,0.0,82,0.00,,,0.00,meteohub,2013-02-18 03:41:00,
2013-02-17 22:46:00,37.9,33.3,30.35,NNW,336,0.0,0.0,83,0.00,,,0.00,meteohub,2013-02-18 03:46:00,
2013-02-17 22:51:00,37.9,33.3,30.35,NNW,336,0.0,0.0,83,0.00,,,0.00,meteohub,2013-02-18 03:51:00,
2013-02-17 22:56:00,37.9,33.3,30.36,NNW,336,0.0,0.0,83,0.00,,,0.00,meteohub,2013-02-18 03:56:00,
2013-02-17 23:01:00,38.1,33.4,30.36,NNW,336,0.0,0.0,83,0.00,,,0.00,meteohub,2013-02-18 04:01:00,
2013-02-17 23:06:00,38.1,33.1,30.36,NNW,336,0.0,0.0,82,0.00,,,0.00,meteohub,2013-02-18 04:06:00,
2013-02-17 23:11:00,37.9,33.3,30.36,NNW,336,0.0,0.0,83,0.00,,,0.00,meteohub,2013-02-18 04:11:00,
2013-02-17 23:16:00,37.9,33.3,30.36,NNW,336,0.0,0.0,83,0.00,,,0.00,meteohub,2013-02-18 04:16:00,
2013-02-17 23:21:00,37.9,32.9,30.36,NNW,336,0.0,0.0,82,0.00,,,0.00,meteohub,2013-02-18 04:21:00,
2013-02-17 23:26:00,37.9,32.9,30.36,NNW,336,0.0,0.0,82,0.00,,,0.00,meteohub,2013-02-18 04:26:00,
2013-02-17 23:31:00,37.9,32.9,30.36,NNW,336,0.0,0.0,82,0.00,,,0.00,meteohub,2013-02-18 04:31:00,
2013-02-17 23:36:00,37.9,32.9,30.36,NNW,336,0.0,0.0,82,0.00,,,0.00,meteohub,2013-02-18 04:36:00,
2013-02-17 23:41:00,37.9,32.7,30.35,NNW,336,0.0,0.0,81,0.00,,,0.00,meteohub,2013-02-18 04:41:00,
2013-02-17 23:46:00,37.9,32.9,30.35,NNW,336,0.0,0.0,82,0.00,,,0.00,meteohub,2013-02-18 04:46:00,
2013-02-17 23:51:00,37.9,32.7,30.36,NNW,336,0.0,0.0,81,0.00,,,0.00,meteohub,2013-02-18 04:51:00,
2013-02-17 23:56:00,37.6,32.4,30.36,NNW,336,0.0,0.0,81,0.00,,,0.00,meteohub,2013-02-18 04:56:00,